sensor_id;sensor_type;location;lat;lon;timestamp;temperature;humidity
19060;DHT22;9663;48.996;8.334;2024-03-02T00:02:14;8.70;56.60
19060;DHT22;9663;48.996;8.334;2024-03-02T00:04:40;8.80;57.30
19060;DHT22;9663;48.996;8.334;2024-03-02T00:07:06;8.80;56.70
19060;DHT22;9663;48.996;8.334;2024-03-02T00:09:33;8.80;56.70
19060;DHT22;9663;48.996;8.334;2024-03-02T00:12:00;8.70;56.70
19060;DHT22;9663;48.996;8.334;2024-03-02T00:14:29;8.80;56.80
19060;DHT22;9663;48.996;8.334;2024-03-02T00:16:55;8.80;56.80
19060;DHT22;9663;48.996;8.334;2024-03-02T00:19:22;8.80;56.80
19060;DHT22;9663;48.996;8.334;2024-03-02T00:21:47;8.80;56.80
19060;DHT22;9663;48.996;8.334;2024-03-02T00:24:32;8.80;56.70
19060;DHT22;9663;48.996;8.334;2024-03-02T00:27:00;8.80;56.90
19060;DHT22;9663;48.996;8.334;2024-03-02T00:29:29;8.70;56.40
19060;DHT22;9663;48.996;8.334;2024-03-02T00:31:55;8.70;56.30
19060;DHT22;9663;48.996;8.334;2024-03-02T00:34:21;8.60;56.40
19060;DHT22;9663;48.996;8.334;2024-03-02T00:36:48;8.50;56.50
19060;DHT22;9663;48.996;8.334;2024-03-02T00:39:15;8.50;56.60
19060;DHT22;9663;48.996;8.334;2024-03-02T00:41:42;8.40;56.70
19060;DHT22;9663;48.996;8.334;2024-03-02T00:44:12;8.40;56.70
19060;DHT22;9663;48.996;8.334;2024-03-02T00:46:41;8.40;56.80
19060;DHT22;9663;48.996;8.334;2024-03-02T00:49:13;8.40;56.70
19060;DHT22;9663;48.996;8.334;2024-03-02T00:51:51;8.30;56.60
19060;DHT22;9663;48.996;8.334;2024-03-02T00:54:22;8.20;56.50
19060;DHT22;9663;48.996;8.334;2024-03-02T00:56:55;8.20;56.60
19060;DHT22;9663;48.996;8.334;2024-03-02T00:59:22;8.10;56.50
19060;DHT22;9663;48.996;8.334;2024-03-02T01:01:48;8.00;56.50
19060;DHT22;9663;48.996;8.334;2024-03-02T01:04:15;7.90;56.50
19060;DHT22;9663;48.996;8.334;2024-03-02T01:06:42;7.80;56.70
19060;DHT22;9663;48.996;8.334;2024-03-02T01:09:08;7.80;57.00
19060;DHT22;9663;48.996;8.334;2024-03-02T01:11:34;7.70;57.10
19060;DHT22;9663;48.996;8.334;2024-03-02T01:14:00;7.70;57.20
19060;DHT22;9663;48.996;8.334;2024-03-02T01:16:25;7.70;57.30
19060;DHT22;9663;48.996;8.334;2024-03-02T01:18:51;7.80;57.40
19060;DHT22;9663;48.996;8.334;2024-03-02T01:21:17;7.80;57.50
19060;DHT22;9663;48.996;8.334;2024-03-02T01:23:43;7.80;57.40
19060;DHT22;9663;48.996;8.334;2024-03-02T01:26:09;7.80;57.40
19060;DHT22;9663;48.996;8.334;2024-03-02T01:28:34;7.90;57.50
19060;DHT22;9663;48.996;8.334;2024-03-02T01:31:00;7.90;57.50
19060;DHT22;9663;48.996;8.334;2024-03-02T01:33:27;7.90;57.50
19060;DHT22;9663;48.996;8.334;2024-03-02T01:35:53;7.90;57.50
19060;DHT22;9663;48.996;8.334;2024-03-02T01:38:18;8.00;57.50
19060;DHT22;9663;48.996;8.334;2024-03-02T01:40:45;8.00;57.40
19060;DHT22;9663;48.996;8.334;2024-03-02T01:43:11;8.00;57.40
19060;DHT22;9663;48.996;8.334;2024-03-02T01:45:36;8.00;57.40
19060;DHT22;9663;48.996;8.334;2024-03-02T01:48:04;8.00;57.40
19060;DHT22;9663;48.996;8.334;2024-03-02T01:50:32;8.00;57.40
19060;DHT22;9663;48.996;8.334;2024-03-02T01:52:59;8.00;57.40
19060;DHT22;9663;48.996;8.334;2024-03-02T01:55:26;8.00;57.40
19060;DHT22;9663;48.996;8.334;2024-03-02T01:57:53;8.00;57.40
19060;DHT22;9663;48.996;8.334;2024-03-02T02:00:22;8.00;57.40
19060;DHT22;9663;48.996;8.334;2024-03-02T02:02:50;8.00;57.40
19060;DHT22;9663;48.996;8.334;2024-03-02T02:05:17;8.00;57.30
19060;DHT22;9663;48.996;8.334;2024-03-02T02:07:43;8.00;57.30
19060;DHT22;9663;48.996;8.334;2024-03-02T02:10:10;7.90;57.30
19060;DHT22;9663;48.996;8.334;2024-03-02T02:12:37;7.90;57.30
19060;DHT22;9663;48.996;8.334;2024-03-02T02:15:21;7.90;57.40
19060;DHT22;9663;48.996;8.334;2024-03-02T02:17:47;7.90;57.50
19060;DHT22;9663;48.996;8.334;2024-03-02T02:20:13;7.90;57.40
19060;DHT22;9663;48.996;8.334;2024-03-02T02:22:39;7.90;57.40
19060;DHT22;9663;48.996;8.334;2024-03-02T02:25:05;7.90;57.40
19060;DHT22;9663;48.996;8.334;2024-03-02T02:27:31;7.90;57.40
19060;DHT22;9663;48.996;8.334;2024-03-02T02:29:56;7.80;57.30
19060;DHT22;9663;48.996;8.334;2024-03-02T02:32:22;7.80;57.20
19060;DHT22;9663;48.996;8.334;2024-03-02T02:34:52;7.80;57.20
19060;DHT22;9663;48.996;8.334;2024-03-02T02:37:18;7.70;57.30
19060;DHT22;9663;48.996;8.334;2024-03-02T02:39:44;7.70;57.20
19060;DHT22;9663;48.996;8.334;2024-03-02T02:42:12;7.60;57.20
19060;DHT22;9663;48.996;8.334;2024-03-02T02:44:37;7.60;57.30
19060;DHT22;9663;48.996;8.334;2024-03-02T02:47:03;7.50;57.30
19060;DHT22;9663;48.996;8.334;2024-03-02T02:49:29;7.50;57.40
19060;DHT22;9663;48.996;8.334;2024-03-02T02:51:54;7.50;58.10
19060;DHT22;9663;48.996;8.334;2024-03-02T02:54:20;7.40;57.50
19060;DHT22;9663;48.996;8.334;2024-03-02T02:56:45;7.40;57.60
19060;DHT22;9663;48.996;8.334;2024-03-02T02:59:11;7.40;57.50
19060;DHT22;9663;48.996;8.334;2024-03-02T03:01:37;7.40;57.40
19060;DHT22;9663;48.996;8.334;2024-03-02T03:04:03;7.40;57.50
19060;DHT22;9663;48.996;8.334;2024-03-02T03:06:28;7.40;57.60
19060;DHT22;9663;48.996;8.334;2024-03-02T03:08:54;7.40;57.60
19060;DHT22;9663;48.996;8.334;2024-03-02T03:11:19;7.40;57.70
19060;DHT22;9663;48.996;8.334;2024-03-02T03:13:45;7.30;57.70
19060;DHT22;9663;48.996;8.334;2024-03-02T03:16:11;7.40;57.80
19060;DHT22;9663;48.996;8.334;2024-03-02T03:18:36;7.40;57.60
19060;DHT22;9663;48.996;8.334;2024-03-02T03:21:03;7.30;57.50
19060;DHT22;9663;48.996;8.334;2024-03-02T03:23:29;7.30;57.70
19060;DHT22;9663;48.996;8.334;2024-03-02T03:25:55;7.30;57.50
19060;DHT22;9663;48.996;8.334;2024-03-02T03:28:20;7.20;57.60
19060;DHT22;9663;48.996;8.334;2024-03-02T03:30:46;7.20;57.70
19060;DHT22;9663;48.996;8.334;2024-03-02T03:33:11;7.20;57.70
19060;DHT22;9663;48.996;8.334;2024-03-02T03:35:37;7.20;57.70
19060;DHT22;9663;48.996;8.334;2024-03-02T03:38:03;7.10;57.50
19060;DHT22;9663;48.996;8.334;2024-03-02T03:40:29;7.10;57.50
19060;DHT22;9663;48.996;8.334;2024-03-02T03:42:54;7.00;57.50
19060;DHT22;9663;48.996;8.334;2024-03-02T03:45:22;6.90;57.50
19060;DHT22;9663;48.996;8.334;2024-03-02T03:47:47;6.90;57.70
19060;DHT22;9663;48.996;8.334;2024-03-02T03:50:13;6.80;57.70
19060;DHT22;9663;48.996;8.334;2024-03-02T03:52:39;6.80;57.90
19060;DHT22;9663;48.996;8.334;2024-03-02T03:55:05;6.70;58.00
19060;DHT22;9663;48.996;8.334;2024-03-02T03:57:30;6.70;58.00
19060;DHT22;9663;48.996;8.334;2024-03-02T03:59:56;6.80;58.10
19060;DHT22;9663;48.996;8.334;2024-03-02T04:02:22;6.70;58.10
19060;DHT22;9663;48.996;8.334;2024-03-02T04:04:47;6.70;58.20
19060;DHT22;9663;48.996;8.334;2024-03-02T04:07:13;6.80;58.10
19060;DHT22;9663;48.996;8.334;2024-03-02T04:09:39;6.70;58.00
19060;DHT22;9663;48.996;8.334;2024-03-02T04:12:04;6.70;58.00
19060;DHT22;9663;48.996;8.334;2024-03-02T04:14:30;6.70;58.00
19060;DHT22;9663;48.996;8.334;2024-03-02T04:16:56;6.70;58.10
19060;DHT22;9663;48.996;8.334;2024-03-02T04:19:21;6.70;58.20
19060;DHT22;9663;48.996;8.334;2024-03-02T04:21:47;6.70;58.20
19060;DHT22;9663;48.996;8.334;2024-03-02T04:24:12;6.70;58.20
19060;DHT22;9663;48.996;8.334;2024-03-02T04:26:38;6.70;58.00
19060;DHT22;9663;48.996;8.334;2024-03-02T04:29:04;6.70;57.90
19060;DHT22;9663;48.996;8.334;2024-03-02T04:31:29;6.60;57.90
19060;DHT22;9663;48.996;8.334;2024-03-02T04:33:55;6.60;58.00
19060;DHT22;9663;48.996;8.334;2024-03-02T04:36:21;6.50;58.00
19060;DHT22;9663;48.996;8.334;2024-03-02T04:38:47;6.50;58.10
19060;DHT22;9663;48.996;8.334;2024-03-02T04:41:13;6.40;57.90
19060;DHT22;9663;48.996;8.334;2024-03-02T04:43:38;6.30;57.90
19060;DHT22;9663;48.996;8.334;2024-03-02T04:46:05;6.30;58.00
19060;DHT22;9663;48.996;8.334;2024-03-02T04:48:32;6.20;58.20
19060;DHT22;9663;48.996;8.334;2024-03-02T04:50:58;6.20;58.40
19060;DHT22;9663;48.996;8.334;2024-03-02T04:53:24;6.20;58.50
19060;DHT22;9663;48.996;8.334;2024-03-02T04:55:49;6.20;58.50
19060;DHT22;9663;48.996;8.334;2024-03-02T04:58:35;6.20;58.60
19060;DHT22;9663;48.996;8.334;2024-03-02T05:01:01;6.20;58.70
19060;DHT22;9663;48.996;8.334;2024-03-02T05:03:26;6.20;58.60
19060;DHT22;9663;48.996;8.334;2024-03-02T05:05:52;6.20;58.60
19060;DHT22;9663;48.996;8.334;2024-03-02T05:08:17;6.30;58.70
19060;DHT22;9663;48.996;8.334;2024-03-02T05:10:43;6.30;58.70
19060;DHT22;9663;48.996;8.334;2024-03-02T05:13:09;6.30;58.70
19060;DHT22;9663;48.996;8.334;2024-03-02T05:15:34;6.30;58.70
19060;DHT22;9663;48.996;8.334;2024-03-02T05:18:00;6.40;58.70
19060;DHT22;9663;48.996;8.334;2024-03-02T05:20:28;6.40;58.70
19060;DHT22;9663;48.996;8.334;2024-03-02T05:22:53;6.40;58.70
19060;DHT22;9663;48.996;8.334;2024-03-02T05:25:19;6.40;58.70
19060;DHT22;9663;48.996;8.334;2024-03-02T05:27:45;6.50;58.70
19060;DHT22;9663;48.996;8.334;2024-03-02T05:30:11;6.40;58.60
19060;DHT22;9663;48.996;8.334;2024-03-02T05:32:37;6.50;58.70
19060;DHT22;9663;48.996;8.334;2024-03-02T05:35:03;6.40;58.60
19060;DHT22;9663;48.996;8.334;2024-03-02T05:37:30;6.40;58.70
19060;DHT22;9663;48.996;8.334;2024-03-02T05:39:56;6.50;58.70
19060;DHT22;9663;48.996;8.334;2024-03-02T05:42:21;6.50;58.70
19060;DHT22;9663;48.996;8.334;2024-03-02T05:44:47;6.50;58.80
19060;DHT22;9663;48.996;8.334;2024-03-02T05:47:13;6.50;58.80
19060;DHT22;9663;48.996;8.334;2024-03-02T05:49:38;6.50;58.60
19060;DHT22;9663;48.996;8.334;2024-03-02T05:52:04;6.50;58.50
19060;DHT22;9663;48.996;8.334;2024-03-02T05:54:30;6.50;58.40
19060;DHT22;9663;48.996;8.334;2024-03-02T05:56:56;6.40;58.40
19060;DHT22;9663;48.996;8.334;2024-03-02T05:59:21;6.40;58.40
19060;DHT22;9663;48.996;8.334;2024-03-02T06:01:48;6.30;58.40
19060;DHT22;9663;48.996;8.334;2024-03-02T06:04:16;6.30;58.50
19060;DHT22;9663;48.996;8.334;2024-03-02T06:06:42;6.30;58.50
19060;DHT22;9663;48.996;8.334;2024-03-02T06:09:08;6.20;58.60
19060;DHT22;9663;48.996;8.334;2024-03-02T06:11:34;6.30;58.70
19060;DHT22;9663;48.996;8.334;2024-03-02T06:14:01;6.30;58.70
19060;DHT22;9663;48.996;8.334;2024-03-02T06:16:27;6.20;58.50
19060;DHT22;9663;48.996;8.334;2024-03-02T06:18:53;6.20;58.40
19060;DHT22;9663;48.996;8.334;2024-03-02T06:21:19;6.10;58.30
19060;DHT22;9663;48.996;8.334;2024-03-02T06:23:45;6.10;58.40
19060;DHT22;9663;48.996;8.334;2024-03-02T06:26:11;6.00;58.30
19060;DHT22;9663;48.996;8.334;2024-03-02T06:28:37;6.00;58.50
19060;DHT22;9663;48.996;8.334;2024-03-02T06:31:04;5.90;58.50
19060;DHT22;9663;48.996;8.334;2024-03-02T06:33:29;6.00;58.70
19060;DHT22;9663;48.996;8.334;2024-03-02T06:35:55;5.90;58.80
19060;DHT22;9663;48.996;8.334;2024-03-02T06:38:21;6.00;59.00
19060;DHT22;9663;48.996;8.334;2024-03-02T06:40:46;6.00;59.00
19060;DHT22;9663;48.996;8.334;2024-03-02T06:43:12;6.00;59.10
19060;DHT22;9663;48.996;8.334;2024-03-02T06:45:38;6.10;59.10
19060;DHT22;9663;48.996;8.334;2024-03-02T06:48:03;6.10;59.20
19060;DHT22;9663;48.996;8.334;2024-03-02T06:50:29;6.20;59.10
19060;DHT22;9663;48.996;8.334;2024-03-02T06:52:55;6.20;59.00
19060;DHT22;9663;48.996;8.334;2024-03-02T06:55:24;6.30;59.00
19060;DHT22;9663;48.996;8.334;2024-03-02T06:57:52;6.30;58.90
19060;DHT22;9663;48.996;8.334;2024-03-02T07:00:19;6.30;58.90
19060;DHT22;9663;48.996;8.334;2024-03-02T07:02:46;6.30;59.00
19060;DHT22;9663;48.996;8.334;2024-03-02T07:05:13;6.30;58.90
19060;DHT22;9663;48.996;8.334;2024-03-02T07:07:38;6.40;58.90
19060;DHT22;9663;48.996;8.334;2024-03-02T07:10:05;6.40;58.90
19060;DHT22;9663;48.996;8.334;2024-03-02T07:12:32;6.40;58.90
19060;DHT22;9663;48.996;8.334;2024-03-02T07:14:58;6.40;58.80
19060;DHT22;9663;48.996;8.334;2024-03-02T07:17:33;6.40;58.90
19060;DHT22;9663;48.996;8.334;2024-03-02T07:19:59;6.50;59.00
19060;DHT22;9663;48.996;8.334;2024-03-02T07:22:25;6.60;59.00
19060;DHT22;9663;48.996;8.334;2024-03-02T07:24:50;6.60;59.20
19060;DHT22;9663;48.996;8.334;2024-03-02T07:27:16;6.70;59.20
19060;DHT22;9663;48.996;8.334;2024-03-02T07:29:43;6.80;59.30
19060;DHT22;9663;48.996;8.334;2024-03-02T07:32:10;7.00;59.40
19060;DHT22;9663;48.996;8.334;2024-03-02T07:34:36;7.10;59.50
19060;DHT22;9663;48.996;8.334;2024-03-02T07:37:03;7.30;59.50
19060;DHT22;9663;48.996;8.334;2024-03-02T07:39:29;7.50;59.60
19060;DHT22;9663;48.996;8.334;2024-03-02T07:41:55;7.80;59.60
19060;DHT22;9663;48.996;8.334;2024-03-02T07:44:21;8.00;59.50
19060;DHT22;9663;48.996;8.334;2024-03-02T07:46:48;8.20;59.40
19060;DHT22;9663;48.996;8.334;2024-03-02T07:49:18;8.40;59.30
19060;DHT22;9663;48.996;8.334;2024-03-02T07:51:44;8.60;59.20
19060;DHT22;9663;48.996;8.334;2024-03-02T07:54:10;8.80;59.00
19060;DHT22;9663;48.996;8.334;2024-03-02T07:56:36;9.00;59.00
19060;DHT22;9663;48.996;8.334;2024-03-02T07:59:03;9.20;58.90
19060;DHT22;9663;48.996;8.334;2024-03-02T08:01:31;9.40;58.70
19060;DHT22;9663;48.996;8.334;2024-03-02T08:03:58;9.60;58.80
19060;DHT22;9663;48.996;8.334;2024-03-02T08:06:25;9.80;58.70
19060;DHT22;9663;48.996;8.334;2024-03-02T08:09:00;10.00;58.60
19060;DHT22;9663;48.996;8.334;2024-03-02T08:11:26;10.20;58.50
19060;DHT22;9663;48.996;8.334;2024-03-02T08:13:53;10.40;58.40
19060;DHT22;9663;48.996;8.334;2024-03-02T08:16:21;10.50;58.20
19060;DHT22;9663;48.996;8.334;2024-03-02T08:18:49;10.70;58.20
19060;DHT22;9663;48.996;8.334;2024-03-02T08:21:15;10.90;58.10
19060;DHT22;9663;48.996;8.334;2024-03-02T08:23:43;11.10;58.00
19060;DHT22;9663;48.996;8.334;2024-03-02T08:26:09;11.30;57.90
19060;DHT22;9663;48.996;8.334;2024-03-02T08:28:36;11.50;57.70
19060;DHT22;9663;48.996;8.334;2024-03-02T08:31:08;11.60;57.50
19060;DHT22;9663;48.996;8.334;2024-03-02T08:33:34;11.80;57.40
19060;DHT22;9663;48.996;8.334;2024-03-02T08:36:00;12.00;57.20
19060;DHT22;9663;48.996;8.334;2024-03-02T08:38:26;12.10;57.10
19060;DHT22;9663;48.996;8.334;2024-03-02T08:40:52;12.30;56.90
19060;DHT22;9663;48.996;8.334;2024-03-02T08:43:19;12.40;56.70
19060;DHT22;9663;48.996;8.334;2024-03-02T08:45:45;12.60;56.70
19060;DHT22;9663;48.996;8.334;2024-03-02T08:48:11;12.70;56.50
19060;DHT22;9663;48.996;8.334;2024-03-02T08:50:37;12.80;56.40
19060;DHT22;9663;48.996;8.334;2024-03-02T08:53:03;12.90;56.30
19060;DHT22;9663;48.996;8.334;2024-03-02T08:55:29;13.00;56.10
19060;DHT22;9663;48.996;8.334;2024-03-02T08:57:55;13.10;56.00
19060;DHT22;9663;48.996;8.334;2024-03-02T09:00:22;13.30;56.00
19060;DHT22;9663;48.996;8.334;2024-03-02T09:02:48;13.40;55.90
19060;DHT22;9663;48.996;8.334;2024-03-02T09:05:14;13.50;55.90
19060;DHT22;9663;48.996;8.334;2024-03-02T09:07:40;13.60;55.70
19060;DHT22;9663;48.996;8.334;2024-03-02T09:10:06;13.80;55.50
19060;DHT22;9663;48.996;8.334;2024-03-02T09:12:33;13.90;55.30
19060;DHT22;9663;48.996;8.334;2024-03-02T09:15:00;14.00;55.20
19060;DHT22;9663;48.996;8.334;2024-03-02T09:17:27;14.20;55.20
19060;DHT22;9663;48.996;8.334;2024-03-02T09:19:52;14.30;55.00
19060;DHT22;9663;48.996;8.334;2024-03-02T09:22:19;14.40;54.70
19060;DHT22;9663;48.996;8.334;2024-03-02T09:24:45;14.50;54.60
19060;DHT22;9663;48.996;8.334;2024-03-02T09:27:10;14.50;54.40
19060;DHT22;9663;48.996;8.334;2024-03-02T09:29:37;14.60;54.30
19060;DHT22;9663;48.996;8.334;2024-03-02T09:32:03;14.70;54.20
19060;DHT22;9663;48.996;8.334;2024-03-02T09:34:29;14.70;54.10
19060;DHT22;9663;48.996;8.334;2024-03-02T09:36:54;14.80;53.90
19060;DHT22;9663;48.996;8.334;2024-03-02T09:39:20;14.80;53.90
19060;DHT22;9663;48.996;8.334;2024-03-02T09:41:46;14.90;53.90
19060;DHT22;9663;48.996;8.334;2024-03-02T09:44:13;14.90;53.80
19060;DHT22;9663;48.996;8.334;2024-03-02T09:46:39;15.00;53.70
19060;DHT22;9663;48.996;8.334;2024-03-02T09:49:05;15.10;53.70
19060;DHT22;9663;48.996;8.334;2024-03-02T09:51:32;15.20;53.70
19060;DHT22;9663;48.996;8.334;2024-03-02T09:53:57;15.30;53.60
19060;DHT22;9663;48.996;8.334;2024-03-02T09:56:26;15.40;53.50
19060;DHT22;9663;48.996;8.334;2024-03-02T09:58:51;15.50;53.50
19060;DHT22;9663;48.996;8.334;2024-03-02T10:01:17;15.60;53.50
19060;DHT22;9663;48.996;8.334;2024-03-02T10:03:44;15.70;53.30
19060;DHT22;9663;48.996;8.334;2024-03-02T10:06:24;15.80;53.10
19060;DHT22;9663;48.996;8.334;2024-03-02T10:08:51;15.90;52.70
19060;DHT22;9663;48.996;8.334;2024-03-02T10:11:33;16.00;53.40
19060;DHT22;9663;48.996;8.334;2024-03-02T10:14:06;16.10;52.50
19060;DHT22;9663;48.996;8.334;2024-03-02T10:16:34;16.20;52.60
19060;DHT22;9663;48.996;8.334;2024-03-02T10:19:23;16.30;52.70
19060;DHT22;9663;48.996;8.334;2024-03-02T10:21:52;16.50;52.00
19060;DHT22;9663;48.996;8.334;2024-03-02T10:24:21;16.60;52.50
19060;DHT22;9663;48.996;8.334;2024-03-02T10:26:48;16.80;52.50
19060;DHT22;9663;48.996;8.334;2024-03-02T10:29:14;16.80;52.20
19060;DHT22;9663;48.996;8.334;2024-03-02T10:31:43;17.00;52.10
19060;DHT22;9663;48.996;8.334;2024-03-02T10:34:11;17.10;52.10
19060;DHT22;9663;48.996;8.334;2024-03-02T10:36:41;17.20;52.10
19060;DHT22;9663;48.996;8.334;2024-03-02T10:39:08;17.40;51.70
19060;DHT22;9663;48.996;8.334;2024-03-02T10:41:36;17.50;51.70
19060;DHT22;9663;48.996;8.334;2024-03-02T10:44:07;17.60;51.50
19060;DHT22;9663;48.996;8.334;2024-03-02T10:46:36;17.70;51.40
19060;DHT22;9663;48.996;8.334;2024-03-02T10:49:05;17.80;51.20
19060;DHT22;9663;48.996;8.334;2024-03-02T10:51:32;17.90;51.00
19060;DHT22;9663;48.996;8.334;2024-03-02T10:54:02;18.00;51.10
19060;DHT22;9663;48.996;8.334;2024-03-02T10:56:33;18.10;51.00
19060;DHT22;9663;48.996;8.334;2024-03-02T11:01:50;18.40;51.30
19060;DHT22;9663;48.996;8.334;2024-03-02T11:04:19;18.50;50.50
19060;DHT22;9663;48.996;8.334;2024-03-02T11:06:51;18.60;50.50
19060;DHT22;9663;48.996;8.334;2024-03-02T11:09:22;18.70;50.00
19060;DHT22;9663;48.996;8.334;2024-03-02T11:14:32;18.90;49.70
19060;DHT22;9663;48.996;8.334;2024-03-02T11:17:01;19.00;50.20
19060;DHT22;9663;48.996;8.334;2024-03-02T11:19:29;19.20;50.00
19060;DHT22;9663;48.996;8.334;2024-03-02T11:21:56;19.20;49.70
19060;DHT22;9663;48.996;8.334;2024-03-02T11:27:02;19.30;49.50
19060;DHT22;9663;48.996;8.334;2024-03-02T11:32:02;19.60;49.20
19060;DHT22;9663;48.996;8.334;2024-03-02T11:34:30;19.70;49.10
19060;DHT22;9663;48.996;8.334;2024-03-02T11:36:57;19.80;49.20
19060;DHT22;9663;48.996;8.334;2024-03-02T11:39:27;20.20;49.20
19060;DHT22;9663;48.996;8.334;2024-03-02T11:41:59;20.90;49.20
19060;DHT22;9663;48.996;8.334;2024-03-02T11:44:26;21.60;48.90
19060;DHT22;9663;48.996;8.334;2024-03-02T11:46:58;22.30;48.50
19060;DHT22;9663;48.996;8.334;2024-03-02T11:52:13;23.70;46.00
19060;DHT22;9663;48.996;8.334;2024-03-02T11:54:47;24.30;47.10
19060;DHT22;9663;48.996;8.334;2024-03-02T11:57:18;24.90;44.80
19060;DHT22;9663;48.996;8.334;2024-03-02T11:59:45;25.40;44.80
19060;DHT22;9663;48.996;8.334;2024-03-02T12:02:19;25.90;44.80
19060;DHT22;9663;48.996;8.334;2024-03-02T12:04:47;26.20;42.80
19060;DHT22;9663;48.996;8.334;2024-03-02T12:07:22;26.50;43.70
19060;DHT22;9663;48.996;8.334;2024-03-02T12:09:49;26.90;42.80
19060;DHT22;9663;48.996;8.334;2024-03-02T12:12:24;27.30;43.00
19060;DHT22;9663;48.996;8.334;2024-03-02T12:14:52;27.70;42.40
19060;DHT22;9663;48.996;8.334;2024-03-02T12:17:22;28.00;41.90
19060;DHT22;9663;48.996;8.334;2024-03-02T12:19:48;28.40;41.40
19060;DHT22;9663;48.996;8.334;2024-03-02T12:22:14;28.70;41.80
19060;DHT22;9663;48.996;8.334;2024-03-02T12:24:41;29.00;40.80
19060;DHT22;9663;48.996;8.334;2024-03-02T12:27:07;29.30;40.60
19060;DHT22;9663;48.996;8.334;2024-03-02T12:29:34;29.50;39.90
19060;DHT22;9663;48.996;8.334;2024-03-02T12:32:00;29.70;39.50
19060;DHT22;9663;48.996;8.334;2024-03-02T12:34:27;29.80;38.70
19060;DHT22;9663;48.996;8.334;2024-03-02T12:36:53;29.80;38.10
19060;DHT22;9663;48.996;8.334;2024-03-02T12:39:20;29.70;37.70
19060;DHT22;9663;48.996;8.334;2024-03-02T12:41:47;29.70;37.40
19060;DHT22;9663;48.996;8.334;2024-03-02T12:44:12;29.70;37.70
19060;DHT22;9663;48.996;8.334;2024-03-02T12:46:38;29.70;37.50
19060;DHT22;9663;48.996;8.334;2024-03-02T12:49:11;29.80;37.30
19060;DHT22;9663;48.996;8.334;2024-03-02T12:51:40;30.00;36.20
19060;DHT22;9663;48.996;8.334;2024-03-02T12:54:07;30.10;36.70
19060;DHT22;9663;48.996;8.334;2024-03-02T12:56:33;30.30;36.70
19060;DHT22;9663;48.996;8.334;2024-03-02T12:59:01;30.40;36.10
19060;DHT22;9663;48.996;8.334;2024-03-02T13:01:27;30.50;36.00
19060;DHT22;9663;48.996;8.334;2024-03-02T13:03:53;30.60;35.70
19060;DHT22;9663;48.996;8.334;2024-03-02T13:06:23;30.60;35.60
19060;DHT22;9663;48.996;8.334;2024-03-02T13:08:50;30.60;35.20
19060;DHT22;9663;48.996;8.334;2024-03-02T13:11:16;30.50;35.10
19060;DHT22;9663;48.996;8.334;2024-03-02T13:13:42;30.40;34.60
19060;DHT22;9663;48.996;8.334;2024-03-02T13:16:12;30.30;34.70
19060;DHT22;9663;48.996;8.334;2024-03-02T13:18:41;30.20;34.40
19060;DHT22;9663;48.996;8.334;2024-03-02T13:21:08;30.20;34.40
19060;DHT22;9663;48.996;8.334;2024-03-02T13:23:34;30.20;34.70
19060;DHT22;9663;48.996;8.334;2024-03-02T13:26:00;30.20;35.10
19060;DHT22;9663;48.996;8.334;2024-03-02T13:28:26;30.10;34.30
19060;DHT22;9663;48.996;8.334;2024-03-02T13:30:52;30.00;31.70
19060;DHT22;9663;48.996;8.334;2024-03-02T13:33:18;30.00;33.20
19060;DHT22;9663;48.996;8.334;2024-03-02T13:35:51;29.80;33.00
19060;DHT22;9663;48.996;8.334;2024-03-02T13:38:18;29.60;33.00
19060;DHT22;9663;48.996;8.334;2024-03-02T13:40:45;29.40;33.10
19060;DHT22;9663;48.996;8.334;2024-03-02T13:43:11;29.00;31.40
19060;DHT22;9663;48.996;8.334;2024-03-02T13:45:38;28.90;32.80
19060;DHT22;9663;48.996;8.334;2024-03-02T13:48:04;28.70;32.80
19060;DHT22;9663;48.996;8.334;2024-03-02T13:50:31;28.50;32.40
19060;DHT22;9663;48.996;8.334;2024-03-02T13:52:56;28.00;32.30
19060;DHT22;9663;48.996;8.334;2024-03-02T13:55:22;27.50;32.40
19060;DHT22;9663;48.996;8.334;2024-03-02T13:57:48;26.90;32.70
19060;DHT22;9663;48.996;8.334;2024-03-02T14:00:16;26.50;32.70
19060;DHT22;9663;48.996;8.334;2024-03-02T14:02:43;26.00;33.60
19060;DHT22;9663;48.996;8.334;2024-03-02T14:05:09;25.50;33.80
19060;DHT22;9663;48.996;8.334;2024-03-02T14:07:37;25.10;33.80
19060;DHT22;9663;48.996;8.334;2024-03-02T14:10:04;24.70;33.30
19060;DHT22;9663;48.996;8.334;2024-03-02T14:12:30;24.50;34.10
19060;DHT22;9663;48.996;8.334;2024-03-02T14:14:56;24.30;34.40
19060;DHT22;9663;48.996;8.334;2024-03-02T14:17:24;24.10;34.60
19060;DHT22;9663;48.996;8.334;2024-03-02T14:19:50;23.80;34.70
19060;DHT22;9663;48.996;8.334;2024-03-02T14:22:17;23.60;34.90
19060;DHT22;9663;48.996;8.334;2024-03-02T14:24:43;23.40;35.10
19060;DHT22;9663;48.996;8.334;2024-03-02T14:27:09;23.20;35.10
19060;DHT22;9663;48.996;8.334;2024-03-02T14:29:35;23.00;35.30
19060;DHT22;9663;48.996;8.334;2024-03-02T14:32:03;22.80;35.60
19060;DHT22;9663;48.996;8.334;2024-03-02T14:34:29;22.60;35.80
19060;DHT22;9663;48.996;8.334;2024-03-02T14:36:55;22.40;35.90
19060;DHT22;9663;48.996;8.334;2024-03-02T14:39:21;22.20;36.20
19060;DHT22;9663;48.996;8.334;2024-03-02T14:41:47;22.10;36.40
19060;DHT22;9663;48.996;8.334;2024-03-02T14:44:12;22.00;36.70
19060;DHT22;9663;48.996;8.334;2024-03-02T14:46:38;21.90;36.80
19060;DHT22;9663;48.996;8.334;2024-03-02T14:49:04;21.90;36.90
19060;DHT22;9663;48.996;8.334;2024-03-02T14:51:30;21.80;37.00
19060;DHT22;9663;48.996;8.334;2024-03-02T14:53:56;21.80;37.10
19060;DHT22;9663;48.996;8.334;2024-03-02T14:56:21;21.70;37.10
19060;DHT22;9663;48.996;8.334;2024-03-02T14:58:47;21.60;37.30
19060;DHT22;9663;48.996;8.334;2024-03-02T15:01:14;21.60;37.50
19060;DHT22;9663;48.996;8.334;2024-03-02T15:03:40;21.50;37.50
19060;DHT22;9663;48.996;8.334;2024-03-02T15:06:06;21.40;37.50
19060;DHT22;9663;48.996;8.334;2024-03-02T15:08:33;21.40;37.60
19060;DHT22;9663;48.996;8.334;2024-03-02T15:10:59;21.30;37.70
19060;DHT22;9663;48.996;8.334;2024-03-02T15:13:26;21.30;37.80
19060;DHT22;9663;48.996;8.334;2024-03-02T15:15:52;21.20;37.80
19060;DHT22;9663;48.996;8.334;2024-03-02T15:18:18;21.10;37.80
19060;DHT22;9663;48.996;8.334;2024-03-02T15:20:44;21.00;37.90
19060;DHT22;9663;48.996;8.334;2024-03-02T15:23:10;20.90;38.70
19060;DHT22;9663;48.996;8.334;2024-03-02T15:25:35;20.80;38.10
19060;DHT22;9663;48.996;8.334;2024-03-02T15:28:01;20.60;38.10
19060;DHT22;9663;48.996;8.334;2024-03-02T15:30:27;20.60;38.20
19060;DHT22;9663;48.996;8.334;2024-03-02T15:32:53;20.50;38.20
19060;DHT22;9663;48.996;8.334;2024-03-02T15:35:19;20.40;38.20
19060;DHT22;9663;48.996;8.334;2024-03-02T15:37:44;20.30;38.40
19060;DHT22;9663;48.996;8.334;2024-03-02T15:40:10;20.20;38.50
19060;DHT22;9663;48.996;8.334;2024-03-02T15:42:36;20.20;38.60
19060;DHT22;9663;48.996;8.334;2024-03-02T15:45:02;20.10;38.70
19060;DHT22;9663;48.996;8.334;2024-03-02T15:47:28;20.00;38.80
19060;DHT22;9663;48.996;8.334;2024-03-02T15:49:54;20.00;38.90
19060;DHT22;9663;48.996;8.334;2024-03-02T15:52:19;19.90;38.90
19060;DHT22;9663;48.996;8.334;2024-03-02T15:54:46;19.80;39.00
19060;DHT22;9663;48.996;8.334;2024-03-02T15:57:14;19.70;39.00
19060;DHT22;9663;48.996;8.334;2024-03-02T15:59:40;19.70;39.10
19060;DHT22;9663;48.996;8.334;2024-03-02T16:02:05;19.60;39.20
19060;DHT22;9663;48.996;8.334;2024-03-02T16:04:31;19.50;40.00
19060;DHT22;9663;48.996;8.334;2024-03-02T16:06:57;19.50;39.90